sensor_id;sensor_type;location;lat;lon;timestamp;P1;durP1;ratioP1;P2;durP2;ratioP2
14348;SDS011;7258;50.376;8.742;2023-02-28T00:00:02;4.20;;;3.90;;
14348;SDS011;7258;50.376;8.742;2023-02-28T00:02:10;5.57;;;4.57;;
14348;SDS011;7258;50.376;8.742;2023-02-28T00:04:13;5.67;;;4.73;;
14348;SDS011;7258;50.376;8.742;2023-02-28T00:06:17;5.43;;;4.70;;
14348;SDS011;7258;50.376;8.742;2023-02-28T00:08:20;6.27;;;4.30;;
14348;SDS011;7258;50.376;8.742;2023-02-28T00:10:24;5.87;;;4.60;;
14348;SDS011;7258;50.376;8.742;2023-02-28T00:12:28;5.43;;;4.80;;
14348;SDS011;7258;50.376;8.742;2023-02-28T00:14:31;5.63;;;4.50;;
14348;SDS011;7258;50.376;8.742;2023-02-28T00:16:34;4.93;;;4.53;;
14348;SDS011;7258;50.376;8.742;2023-02-28T00:18:37;5.53;;;4.87;;
14348;SDS011;7258;50.376;8.742;2023-02-28T00:20:40;5.10;;;4.60;;
14348;SDS011;7258;50.376;8.742;2023-02-28T00:22:45;5.43;;;4.93;;
14348;SDS011;7258;50.376;8.742;2023-02-28T00:24:49;5.20;;;4.70;;
14348;SDS011;7258;50.376;8.742;2023-02-28T00:26:52;5.70;;;4.60;;
14348;SDS011;7258;50.376;8.742;2023-02-28T00:28:55;5.17;;;4.67;;
14348;SDS011;7258;50.376;8.742;2023-02-28T00:30:58;5.73;;;5.23;;
14348;SDS011;7258;50.376;8.742;2023-02-28T00:33:02;5.97;;;4.83;;
14348;SDS011;7258;50.376;8.742;2023-02-28T00:35:05;5.30;;;4.80;;
14348;SDS011;7258;50.376;8.742;2023-02-28T00:37:09;5.43;;;4.93;;
14348;SDS011;7258;50.376;8.742;2023-02-28T00:39:19;5.40;;;4.90;;
14348;SDS011;7258;50.376;8.742;2023-02-28T00:41:22;5.40;;;4.90;;
14348;SDS011;7258;50.376;8.742;2023-02-28T00:43:25;5.03;;;4.53;;
14348;SDS011;7258;50.376;8.742;2023-02-28T00:45:28;6.13;;;4.80;;
14348;SDS011;7258;50.376;8.742;2023-02-28T00:47:31;5.43;;;4.90;;
14348;SDS011;7258;50.376;8.742;2023-02-28T00:49:34;7.43;;;4.87;;
14348;SDS011;7258;50.376;8.742;2023-02-28T00:51:37;6.10;;;5.17;;
14348;SDS011;7258;50.376;8.742;2023-02-28T00:53:40;6.17;;;5.43;;
14348;SDS011;7258;50.376;8.742;2023-02-28T00:55:44;5.70;;;5.20;;
14348;SDS011;7258;50.376;8.742;2023-02-28T00:57:47;5.97;;;5.23;;
14348;SDS011;7258;50.376;8.742;2023-02-28T00:59:50;5.10;;;4.60;;
14348;SDS011;7258;50.376;8.742;2023-02-28T01:01:55;5.43;;;4.80;;
14348;SDS011;7258;50.376;8.742;2023-02-28T01:03:58;5.60;;;5.00;;
14348;SDS011;7258;50.376;8.742;2023-02-28T01:06:01;6.60;;;5.83;;
14348;SDS011;7258;50.376;8.742;2023-02-28T01:08:04;5.53;;;5.03;;
14348;SDS011;7258;50.376;8.742;2023-02-28T01:10:08;6.40;;;5.80;;
14348;SDS011;7258;50.376;8.742;2023-02-28T01:12:13;5.60;;;5.10;;
14348;SDS011;7258;50.376;8.742;2023-02-28T01:14:16;5.83;;;5.20;;
14348;SDS011;7258;50.376;8.742;2023-02-28T01:16:19;6.87;;;6.27;;
14348;SDS011;7258;50.376;8.742;2023-02-28T01:18:22;5.83;;;5.23;;
14348;SDS011;7258;50.376;8.742;2023-02-28T01:20:25;5.87;;;5.27;;
14348;SDS011;7258;50.376;8.742;2023-02-28T01:22:28;6.77;;;5.87;;
14348;SDS011;7258;50.376;8.742;2023-02-28T01:24:32;6.50;;;5.97;;
14348;SDS011;7258;50.376;8.742;2023-02-28T01:26:35;6.57;;;5.97;;
14348;SDS011;7258;50.376;8.742;2023-02-28T01:28:39;6.73;;;6.00;;
14348;SDS011;7258;50.376;8.742;2023-02-28T01:30:42;7.20;;;5.77;;
14348;SDS011;7258;50.376;8.742;2023-02-28T01:32:49;6.70;;;6.00;;
14348;SDS011;7258;50.376;8.742;2023-02-28T01:34:54;7.57;;;6.83;;
14348;SDS011;7258;50.376;8.742;2023-02-28T01:36:57;7.33;;;6.33;;
14348;SDS011;7258;50.376;8.742;2023-02-28T01:39:00;7.00;;;6.27;;
14348;SDS011;7258;50.376;8.742;2023-02-28T01:41:04;6.83;;;6.13;;
14348;SDS011;7258;50.376;8.742;2023-02-28T01:43:09;7.10;;;6.23;;
14348;SDS011;7258;50.376;8.742;2023-02-28T01:45:24;7.30;;;6.47;;
14348;SDS011;7258;50.376;8.742;2023-02-28T01:47:30;7.10;;;6.40;;
14348;SDS011;7258;50.376;8.742;2023-02-28T01:49:36;6.80;;;6.03;;
14348;SDS011;7258;50.376;8.742;2023-02-28T01:51:40;7.70;;;6.90;;
14348;SDS011;7258;50.376;8.742;2023-02-28T01:53:53;6.50;;;5.90;;
14348;SDS011;7258;50.376;8.742;2023-02-28T01:56:00;7.33;;;6.57;;
14348;SDS011;7258;50.376;8.742;2023-02-28T01:58:05;7.80;;;7.00;;
14348;SDS011;7258;50.376;8.742;2023-02-28T02:00:11;7.03;;;6.30;;
14348;SDS011;7258;50.376;8.742;2023-02-28T02:02:18;8.10;;;6.03;;
14348;SDS011;7258;50.376;8.742;2023-02-28T02:04:23;6.80;;;6.17;;
14348;SDS011;7258;50.376;8.742;2023-02-28T02:06:35;8.53;;;6.53;;
14348;SDS011;7258;50.376;8.742;2023-02-28T02:08:41;6.77;;;6.07;;
14348;SDS011;7258;50.376;8.742;2023-02-28T02:10:44;7.10;;;6.40;;
14348;SDS011;7258;50.376;8.742;2023-02-28T02:15:22;10.40;;;6.60;;
14348;SDS011;7258;50.376;8.742;2023-02-28T02:17:34;7.53;;;6.50;;
14348;SDS011;7258;50.376;8.742;2023-02-28T02:19:46;6.73;;;5.70;;
14348;SDS011;7258;50.376;8.742;2023-02-28T02:22:21;6.67;;;6.07;;
14348;SDS011;7258;50.376;8.742;2023-02-28T02:24:50;7.30;;;6.17;;
14348;SDS011;7258;50.376;8.742;2023-02-28T02:30:01;8.67;;;6.27;;
14348;SDS011;7258;50.376;8.742;2023-02-28T02:32:28;7.03;;;6.23;;
14348;SDS011;7258;50.376;8.742;2023-02-28T02:34:50;6.70;;;6.10;;
14348;SDS011;7258;50.376;8.742;2023-02-28T02:37:00;6.67;;;6.07;;
14348;SDS011;7258;50.376;8.742;2023-02-28T02:39:11;6.53;;;5.90;;
14348;SDS011;7258;50.376;8.742;2023-02-28T02:41:19;7.13;;;6.37;;
14348;SDS011;7258;50.376;8.742;2023-02-28T02:43:31;7.00;;;6.30;;
14348;SDS011;7258;50.376;8.742;2023-02-28T02:45:39;6.53;;;5.83;;
14348;SDS011;7258;50.376;8.742;2023-02-28T02:47:48;6.83;;;6.20;;
14348;SDS011;7258;50.376;8.742;2023-02-28T02:49:55;6.50;;;5.90;;
14348;SDS011;7258;50.376;8.742;2023-02-28T02:52:01;6.57;;;5.97;;
14348;SDS011;7258;50.376;8.742;2023-02-28T02:54:08;7.07;;;6.37;;
14348;SDS011;7258;50.376;8.742;2023-02-28T02:56:17;6.47;;;5.87;;
14348;SDS011;7258;50.376;8.742;2023-02-28T02:58:22;6.83;;;5.90;;
14348;SDS011;7258;50.376;8.742;2023-02-28T03:00:29;6.33;;;5.70;;
14348;SDS011;7258;50.376;8.742;2023-02-28T03:02:36;6.83;;;5.87;;
14348;SDS011;7258;50.376;8.742;2023-02-28T03:04:42;6.23;;;5.63;;
14348;SDS011;7258;50.376;8.742;2023-02-28T03:06:49;6.60;;;5.90;;
14348;SDS011;7258;50.376;8.742;2023-02-28T03:08:56;6.23;;;5.67;;
14348;SDS011;7258;50.376;8.742;2023-02-28T03:10:59;5.90;;;5.30;;
14348;SDS011;7258;50.376;8.742;2023-02-28T03:13:20;6.53;;;5.90;;
14348;SDS011;7258;50.376;8.742;2023-02-28T03:15:50;6.53;;;5.53;;
14348;SDS011;7258;50.376;8.742;2023-02-28T03:18:08;6.17;;;4.93;;
14348;SDS011;7258;50.376;8.742;2023-02-28T03:20:22;6.27;;;5.63;;
14348;SDS011;7258;50.376;8.742;2023-02-28T03:22:39;6.10;;;5.47;;
14348;SDS011;7258;50.376;8.742;2023-02-28T03:24:53;5.23;;;4.80;;
14348;SDS011;7258;50.376;8.742;2023-02-28T03:27:02;5.90;;;5.30;;
14348;SDS011;7258;50.376;8.742;2023-02-28T03:29:11;5.30;;;4.80;;
14348;SDS011;7258;50.376;8.742;2023-02-28T03:31:20;6.47;;;5.80;;
14348;SDS011;7258;50.376;8.742;2023-02-28T03:33:28;6.00;;;5.40;;
14348;SDS011;7258;50.376;8.742;2023-02-28T03:35:35;5.47;;;5.03;;
14348;SDS011;7258;50.376;8.742;2023-02-28T03:37:42;5.23;;;4.73;;
14348;SDS011;7258;50.376;8.742;2023-02-28T03:39:47;5.60;;;4.97;;
14348;SDS011;7258;50.376;8.742;2023-02-28T03:41:56;5.77;;;5.20;;
14348;SDS011;7258;50.376;8.742;2023-02-28T03:44:03;6.00;;;5.40;;
14348;SDS011;7258;50.376;8.742;2023-02-28T03:46:10;5.70;;;5.20;;
14348;SDS011;7258;50.376;8.742;2023-02-28T03:48:19;5.80;;;5.27;;
14348;SDS011;7258;50.376;8.742;2023-02-28T03:50:26;6.33;;;5.50;;
14348;SDS011;7258;50.376;8.742;2023-02-28T03:52:38;5.60;;;4.57;;
14348;SDS011;7258;50.376;8.742;2023-02-28T03:54:48;5.80;;;5.30;;
14348;SDS011;7258;50.376;8.742;2023-02-28T03:56:57;6.47;;;5.80;;
14348;SDS011;7258;50.376;8.742;2023-02-28T03:59:04;6.77;;;5.80;;
14348;SDS011;7258;50.376;8.742;2023-02-28T04:01:13;6.80;;;5.73;;
14348;SDS011;7258;50.376;8.742;2023-02-28T04:03:21;6.13;;;5.53;;
14348;SDS011;7258;50.376;8.742;2023-02-28T04:05:24;8.33;;;5.97;;
14348;SDS011;7258;50.376;8.742;2023-02-28T04:07:28;6.90;;;5.23;;
14348;SDS011;7258;50.376;8.742;2023-02-28T04:09:39;6.40;;;5.80;;
14348;SDS011;7258;50.376;8.742;2023-02-28T04:11:44;5.80;;;5.20;;
14348;SDS011;7258;50.376;8.742;2023-02-28T04:13:52;6.83;;;6.13;;
14348;SDS011;7258;50.376;8.742;2023-02-28T04:15:55;5.83;;;5.23;;
14348;SDS011;7258;50.376;8.742;2023-02-28T04:17:58;7.10;;;6.13;;
14348;SDS011;7258;50.376;8.742;2023-02-28T04:20:01;6.47;;;5.73;;
14348;SDS011;7258;50.376;8.742;2023-02-28T04:22:10;6.67;;;6.07;;
14348;SDS011;7258;50.376;8.742;2023-02-28T04:24:15;7.20;;;5.87;;
14348;SDS011;7258;50.376;8.742;2023-02-28T04:26:20;8.73;;;6.10;;
14348;SDS011;7258;50.376;8.742;2023-02-28T04:28:26;8.00;;;6.07;;
14348;SDS011;7258;50.376;8.742;2023-02-28T04:30:29;8.13;;;6.37;;
14348;SDS011;7258;50.376;8.742;2023-02-28T04:32:33;6.97;;;6.10;;
14348;SDS011;7258;50.376;8.742;2023-02-28T04:34:36;6.43;;;5.83;;
14348;SDS011;7258;50.376;8.742;2023-02-28T04:36:39;7.13;;;6.30;;
14348;SDS011;7258;50.376;8.742;2023-02-28T04:38:43;6.20;;;5.60;;
14348;SDS011;7258;50.376;8.742;2023-02-28T04:40:47;7.10;;;6.40;;
14348;SDS011;7258;50.376;8.742;2023-02-28T04:42:52;7.07;;;6.37;;
14348;SDS011;7258;50.376;8.742;2023-02-28T04:44:54;7.00;;;6.27;;
14348;SDS011;7258;50.376;8.742;2023-02-28T04:46:57;6.93;;;6.23;;
14348;SDS011;7258;50.376;8.742;2023-02-28T04:49:00;7.27;;;6.57;;
14348;SDS011;7258;50.376;8.742;2023-02-28T04:51:04;6.30;;;5.70;;
14348;SDS011;7258;50.376;8.742;2023-02-28T04:53:08;7.20;;;6.50;;
14348;SDS011;7258;50.376;8.742;2023-02-28T04:55:11;7.53;;;6.73;;
14348;SDS011;7258;50.376;8.742;2023-02-28T04:57:13;6.97;;;6.27;;
14348;SDS011;7258;50.376;8.742;2023-02-28T04:59:18;7.47;;;6.77;;
14348;SDS011;7258;50.376;8.742;2023-02-28T05:01:22;8.23;;;6.73;;
14348;SDS011;7258;50.376;8.742;2023-02-28T05:03:26;8.33;;;6.63;;
14348;SDS011;7258;50.376;8.742;2023-02-28T05:05:29;7.63;;;6.33;;
14348;SDS011;7258;50.376;8.742;2023-02-28T05:07:32;7.93;;;6.60;;
14348;SDS011;7258;50.376;8.742;2023-02-28T05:09:35;7.03;;;6.07;;
14348;SDS011;7258;50.376;8.742;2023-02-28T05:11:38;7.83;;;6.40;;
14348;SDS011;7258;50.376;8.742;2023-02-28T05:13:42;7.30;;;6.60;;
14348;SDS011;7258;50.376;8.742;2023-02-28T05:15:46;7.60;;;6.83;;
14348;SDS011;7258;50.376;8.742;2023-02-28T05:17:49;6.80;;;6.13;;
14348;SDS011;7258;50.376;8.742;2023-02-28T05:19:52;7.00;;;6.30;;
14348;SDS011;7258;50.376;8.742;2023-02-28T05:22:11;7.33;;;6.37;;
14348;SDS011;7258;50.376;8.742;2023-02-28T05:24:16;7.40;;;6.70;;
14348;SDS011;7258;50.376;8.742;2023-02-28T05:26:24;7.23;;;6.53;;
14348;SDS011;7258;50.376;8.742;2023-02-28T05:28:27;8.70;;;6.67;;
14348;SDS011;7258;50.376;8.742;2023-02-28T05:30:30;7.77;;;7.07;;
14348;SDS011;7258;50.376;8.742;2023-02-28T05:32:35;7.57;;;6.87;;
14348;SDS011;7258;50.376;8.742;2023-02-28T05:34:38;7.40;;;6.70;;
14348;SDS011;7258;50.376;8.742;2023-02-28T05:36:41;6.97;;;6.27;;
14348;SDS011;7258;50.376;8.742;2023-02-28T05:38:45;7.77;;;6.97;;
14348;SDS011;7258;50.376;8.742;2023-02-28T05:40:49;9.23;;;7.20;;
14348;SDS011;7258;50.376;8.742;2023-02-28T05:42:52;7.03;;;5.90;;
14348;SDS011;7258;50.376;8.742;2023-02-28T05:44:55;10.40;;;6.63;;
14348;SDS011;7258;50.376;8.742;2023-02-28T05:46:57;7.37;;;6.67;;
14348;SDS011;7258;50.376;8.742;2023-02-28T05:49:02;9.07;;;6.17;;
14348;SDS011;7258;50.376;8.742;2023-02-28T05:51:05;7.70;;;6.90;;
14348;SDS011;7258;50.376;8.742;2023-02-28T05:53:09;7.60;;;6.90;;
14348;SDS011;7258;50.376;8.742;2023-02-28T05:55:11;7.53;;;6.83;;
14348;SDS011;7258;50.376;8.742;2023-02-28T05:57:15;8.27;;;6.93;;
14348;SDS011;7258;50.376;8.742;2023-02-28T05:59:25;7.60;;;6.80;;
14348;SDS011;7258;50.376;8.742;2023-02-28T06:01:31;7.07;;;6.33;;
14348;SDS011;7258;50.376;8.742;2023-02-28T06:03:36;7.33;;;6.63;;
14348;SDS011;7258;50.376;8.742;2023-02-28T06:05:40;6.80;;;6.10;;
14348;SDS011;7258;50.376;8.742;2023-02-28T06:07:43;6.77;;;6.07;;
14348;SDS011;7258;50.376;8.742;2023-02-28T06:09:46;7.13;;;5.57;;
14348;SDS011;7258;50.376;8.742;2023-02-28T06:11:49;8.70;;;6.27;;
14348;SDS011;7258;50.376;8.742;2023-02-28T06:13:53;6.40;;;5.80;;
14348;SDS011;7258;50.376;8.742;2023-02-28T06:15:59;7.40;;;6.37;;
14348;SDS011;7258;50.376;8.742;2023-02-28T06:18:02;7.20;;;6.10;;
14348;SDS011;7258;50.376;8.742;2023-02-28T06:20:06;9.30;;;6.30;;
14348;SDS011;7258;50.376;8.742;2023-02-28T06:22:12;6.40;;;5.80;;
14348;SDS011;7258;50.376;8.742;2023-02-28T06:24:15;6.93;;;6.20;;
14348;SDS011;7258;50.376;8.742;2023-02-28T06:26:18;6.53;;;5.70;;
14348;SDS011;7258;50.376;8.742;2023-02-28T06:28:21;8.07;;;6.27;;
14348;SDS011;7258;50.376;8.742;2023-02-28T06:30:24;7.20;;;5.90;;
14348;SDS011;7258;50.376;8.742;2023-02-28T06:32:31;6.10;;;5.50;;
14348;SDS011;7258;50.376;8.742;2023-02-28T06:34:34;8.63;;;5.70;;
14348;SDS011;7258;50.376;8.742;2023-02-28T06:36:38;7.10;;;6.20;;
14348;SDS011;7258;50.376;8.742;2023-02-28T06:38:43;6.03;;;5.43;;
14348;SDS011;7258;50.376;8.742;2023-02-28T06:40:52;6.10;;;5.50;;
14348;SDS011;7258;50.376;8.742;2023-02-28T06:42:56;6.23;;;5.17;;
14348;SDS011;7258;50.376;8.742;2023-02-28T06:44:59;6.87;;;5.70;;
14348;SDS011;7258;50.376;8.742;2023-02-28T06:47:04;6.47;;;5.37;;
14348;SDS011;7258;50.376;8.742;2023-02-28T06:49:09;7.40;;;5.77;;
14348;SDS011;7258;50.376;8.742;2023-02-28T06:51:13;6.20;;;5.60;;
14348;SDS011;7258;50.376;8.742;2023-02-28T06:53:17;8.10;;;5.53;;
14348;SDS011;7258;50.376;8.742;2023-02-28T06:55:22;7.57;;;5.63;;
14348;SDS011;7258;50.376;8.742;2023-02-28T06:57:25;6.73;;;5.60;;
14348;SDS011;7258;50.376;8.742;2023-02-28T06:59:32;7.07;;;5.70;;
14348;SDS011;7258;50.376;8.742;2023-02-28T07:01:36;6.73;;;5.87;;
14348;SDS011;7258;50.376;8.742;2023-02-28T07:03:40;7.00;;;5.40;;
14348;SDS011;7258;50.376;8.742;2023-02-28T07:05:43;6.33;;;5.77;;
14348;SDS011;7258;50.376;8.742;2023-02-28T07:07:47;5.93;;;5.20;;
14348;SDS011;7258;50.376;8.742;2023-02-28T07:09:53;6.53;;;5.60;;
14348;SDS011;7258;50.376;8.742;2023-02-28T07:11:57;6.87;;;5.90;;
14348;SDS011;7258;50.376;8.742;2023-02-28T07:14:01;6.03;;;5.50;;
14348;SDS011;7258;50.376;8.742;2023-02-28T07:16:05;6.93;;;5.40;;
14348;SDS011;7258;50.376;8.742;2023-02-28T07:18:10;6.60;;;5.47;;
14348;SDS011;7258;50.376;8.742;2023-02-28T07:20:13;5.93;;;5.30;;
14348;SDS011;7258;50.376;8.742;2023-02-28T07:22:16;7.20;;;5.90;;
14348;SDS011;7258;50.376;8.742;2023-02-28T07:24:19;7.87;;;5.87;;
14348;SDS011;7258;50.376;8.742;2023-02-28T07:26:24;6.07;;;5.47;;
14348;SDS011;7258;50.376;8.742;2023-02-28T07:28:29;6.03;;;5.33;;
14348;SDS011;7258;50.376;8.742;2023-02-28T07:30:32;7.30;;;5.97;;
14348;SDS011;7258;50.376;8.742;2023-02-28T07:32:36;5.90;;;5.40;;
14348;SDS011;7258;50.376;8.742;2023-02-28T07:34:39;6.20;;;5.60;;
14348;SDS011;7258;50.376;8.742;2023-02-28T07:36:42;6.90;;;5.97;;
14348;SDS011;7258;50.376;8.742;2023-02-28T07:38:45;6.13;;;5.40;;
14348;SDS011;7258;50.376;8.742;2023-02-28T07:40:51;5.97;;;5.37;;
14348;SDS011;7258;50.376;8.742;2023-02-28T07:42:54;8.33;;;6.30;;
14348;SDS011;7258;50.376;8.742;2023-02-28T07:44:58;5.93;;;5.33;;
14348;SDS011;7258;50.376;8.742;2023-02-28T07:47:01;6.97;;;5.60;;
14348;SDS011;7258;50.376;8.742;2023-02-28T07:49:05;7.10;;;5.60;;
14348;SDS011;7258;50.376;8.742;2023-02-28T07:51:08;6.07;;;5.47;;
14348;SDS011;7258;50.376;8.742;2023-02-28T07:53:11;6.77;;;5.87;;
14348;SDS011;7258;50.376;8.742;2023-02-28T07:55:14;6.13;;;5.53;;
14348;SDS011;7258;50.376;8.742;2023-02-28T07:57:17;6.30;;;5.33;;
14348;SDS011;7258;50.376;8.742;2023-02-28T07:59:21;7.93;;;5.37;;
14348;SDS011;7258;50.376;8.742;2023-02-28T08:01:25;5.73;;;5.13;;
14348;SDS011;7258;50.376;8.742;2023-02-28T08:03:28;6.23;;;5.30;;
14348;SDS011;7258;50.376;8.742;2023-02-28T08:05:31;6.27;;;5.27;;
14348;SDS011;7258;50.376;8.742;2023-02-28T08:07:34;5.90;;;5.30;;
14348;SDS011;7258;50.376;8.742;2023-02-28T08:09:37;5.83;;;5.30;;
14348;SDS011;7258;50.376;8.742;2023-02-28T08:11:40;5.53;;;5.00;;
14348;SDS011;7258;50.376;8.742;2023-02-28T08:13:43;6.30;;;5.00;;
14348;SDS011;7258;50.376;8.742;2023-02-28T08:15:47;5.70;;;5.13;;
14348;SDS011;7258;50.376;8.742;2023-02-28T08:17:54;5.80;;;5.20;;
14348;SDS011;7258;50.376;8.742;2023-02-28T08:19:58;5.60;;;5.00;;
14348;SDS011;7258;50.376;8.742;2023-02-28T08:22:01;6.07;;;5.47;;
14348;SDS011;7258;50.376;8.742;2023-02-28T08:24:04;6.53;;;5.53;;
14348;SDS011;7258;50.376;8.742;2023-02-28T08:26:08;5.90;;;5.40;;
14348;SDS011;7258;50.376;8.742;2023-02-28T08:28:11;5.50;;;5.00;;
14348;SDS011;7258;50.376;8.742;2023-02-28T08:32:17;5.43;;;4.90;;
14348;SDS011;7258;50.376;8.742;2023-02-28T08:34:32;4.97;;;4.43;;
14348;SDS011;7258;50.376;8.742;2023-02-28T08:36:35;4.97;;;4.57;;
14348;SDS011;7258;50.376;8.742;2023-02-28T08:38:38;5.17;;;4.50;;
14348;SDS011;7258;50.376;8.742;2023-02-28T08:40:41;5.23;;;4.80;;
14348;SDS011;7258;50.376;8.742;2023-02-28T08:42:44;5.40;;;4.90;;
14348;SDS011;7258;50.376;8.742;2023-02-28T08:44:47;6.10;;;5.37;;
14348;SDS011;7258;50.376;8.742;2023-02-28T08:46:50;6.23;;;4.50;;
14348;SDS011;7258;50.376;8.742;2023-02-28T08:48:55;6.60;;;4.47;;
14348;SDS011;7258;50.376;8.742;2023-02-28T08:51:03;4.87;;;4.47;;
14348;SDS011;7258;50.376;8.742;2023-02-28T08:53:09;5.63;;;4.90;;
14348;SDS011;7258;50.376;8.742;2023-02-28T08:55:12;5.07;;;4.57;;
14348;SDS011;7258;50.376;8.742;2023-02-28T08:57:15;5.33;;;4.07;;
14348;SDS011;7258;50.376;8.742;2023-02-28T08:59:18;4.50;;;4.10;;
14348;SDS011;7258;50.376;8.742;2023-02-28T09:01:21;5.07;;;3.90;;
14348;SDS011;7258;50.376;8.742;2023-02-28T09:03:26;6.90;;;4.23;;
14348;SDS011;7258;50.376;8.742;2023-02-28T09:05:29;4.87;;;4.13;;
14348;SDS011;7258;50.376;8.742;2023-02-28T09:07:33;4.63;;;4.03;;
14348;SDS011;7258;50.376;8.742;2023-02-28T09:09:36;4.20;;;3.80;;
14348;SDS011;7258;50.376;8.742;2023-02-28T09:11:55;4.97;;;3.90;;
14348;SDS011;7258;50.376;8.742;2023-02-28T09:13:58;4.57;;;3.93;;
14348;SDS011;7258;50.376;8.742;2023-02-28T09:16:02;4.17;;;3.77;;
14348;SDS011;7258;50.376;8.742;2023-02-28T09:18:07;4.10;;;3.70;;
14348;SDS011;7258;50.376;8.742;2023-02-28T09:20:10;4.37;;;3.90;;
14348;SDS011;7258;50.376;8.742;2023-02-28T09:22:14;5.97;;;3.90;;
14348;SDS011;7258;50.376;8.742;2023-02-28T09:24:19;7.30;;;4.10;;
14348;SDS011;7258;50.376;8.742;2023-02-28T09:26:25;4.20;;;3.80;;
14348;SDS011;7258;50.376;8.742;2023-02-28T09:28:43;4.93;;;3.97;;
14348;SDS011;7258;50.376;8.742;2023-02-28T09:30:47;4.37;;;3.80;;
14348;SDS011;7258;50.376;8.742;2023-02-28T09:32:52;6.33;;;3.80;;
14348;SDS011;7258;50.376;8.742;2023-02-28T09:34:55;4.40;;;4.00;;
14348;SDS011;7258;50.376;8.742;2023-02-28T09:36:58;4.40;;;3.73;;
14348;SDS011;7258;50.376;8.742;2023-02-28T09:39:01;4.70;;;3.77;;
14348;SDS011;7258;50.376;8.742;2023-02-28T09:41:11;5.33;;;3.90;;
14348;SDS011;7258;50.376;8.742;2023-02-28T09:43:17;4.97;;;4.47;;
14348;SDS011;7258;50.376;8.742;2023-02-28T09:45:22;7.30;;;4.77;;
14348;SDS011;7258;50.376;8.742;2023-02-28T09:47:29;5.97;;;4.50;;
14348;SDS011;7258;50.376;8.742;2023-02-28T09:49:37;4.67;;;4.20;;
14348;SDS011;7258;50.376;8.742;2023-02-28T09:51:45;5.40;;;4.67;;
14348;SDS011;7258;50.376;8.742;2023-02-28T09:53:54;4.63;;;4.20;;
14348;SDS011;7258;50.376;8.742;2023-02-28T09:56:03;4.43;;;4.03;;
14348;SDS011;7258;50.376;8.742;2023-02-28T09:58:13;6.90;;;4.70;;
14348;SDS011;7258;50.376;8.742;2023-02-28T10:00:22;5.23;;;3.90;;
14348;SDS011;7258;50.376;8.742;2023-02-28T10:02:39;5.40;;;3.93;;
14348;SDS011;7258;50.376;8.742;2023-02-28T10:04:52;4.70;;;4.17;;
14348;SDS011;7258;50.376;8.742;2023-02-28T10:06:59;6.23;;;4.20;;
14348;SDS011;7258;50.376;8.742;2023-02-28T10:09:11;4.40;;;4.00;;
14348;SDS011;7258;50.376;8.742;2023-02-28T10:11:18;5.23;;;4.13;;
14348;SDS011;7258;50.376;8.742;2023-02-28T10:13:26;4.80;;;4.13;;
14348;SDS011;7258;50.376;8.742;2023-02-28T10:15:35;4.70;;;4.07;;
14348;SDS011;7258;50.376;8.742;2023-02-28T10:17:39;4.70;;;4.30;;
14348;SDS011;7258;50.376;8.742;2023-02-28T10:19:58;4.37;;;3.97;;
14348;SDS011;7258;50.376;8.742;2023-02-28T10:22:10;6.07;;;4.40;;
14348;SDS011;7258;50.376;8.742;2023-02-28T10:24:19;5.03;;;4.53;;
14348;SDS011;7258;50.376;8.742;2023-02-28T10:26:25;5.23;;;3.70;;
14348;SDS011;7258;50.376;8.742;2023-02-28T10:28:32;5.90;;;4.23;;
14348;SDS011;7258;50.376;8.742;2023-02-28T10:30:36;5.43;;;4.50;;
14348;SDS011;7258;50.376;8.742;2023-02-28T10:32:43;4.67;;;3.70;;
14348;SDS011;7258;50.376;8.742;2023-02-28T10:34:52;4.67;;;4.27;;
14348;SDS011;7258;50.376;8.742;2023-02-28T10:36:59;5.17;;;4.17;;
14348;SDS011;7258;50.376;8.742;2023-02-28T10:41:37;5.27;;;4.53;;
14348;SDS011;7258;50.376;8.742;2023-02-28T10:43:47;4.70;;;4.27;;
14348;SDS011;7258;50.376;8.742;2023-02-28T10:46:01;5.00;;;4.43;;
14348;SDS011;7258;50.376;8.742;2023-02-28T10:48:10;6.23;;;3.70;;
14348;SDS011;7258;50.376;8.742;2023-02-28T10:50:41;4.67;;;4.03;;
14348;SDS011;7258;50.376;8.742;2023-02-28T10:52:46;4.63;;;4.13;;
14348;SDS011;7258;50.376;8.742;2023-02-28T10:54:49;4.80;;;4.40;;
14348;SDS011;7258;50.376;8.742;2023-02-28T10:57:05;4.97;;;4.40;;
14348;SDS011;7258;50.376;8.742;2023-02-28T10:59:26;7.60;;;4.07;;
14348;SDS011;7258;50.376;8.742;2023-02-28T11:01:35;5.27;;;4.77;;
14348;SDS011;7258;50.376;8.742;2023-02-28T11:03:39;5.07;;;4.37;;
14348;SDS011;7258;50.376;8.742;2023-02-28T11:05:42;5.87;;;4.37;;
14348;SDS011;7258;50.376;8.742;2023-02-28T11:07:50;7.50;;;4.30;;
14348;SDS011;7258;50.376;8.742;2023-02-28T11:09:56;5.63;;;4.40;;
14348;SDS011;7258;50.376;8.742;2023-02-28T11:12:00;5.33;;;4.50;;
14348;SDS011;7258;50.376;8.742;2023-02-28T11:14:04;6.37;;;5.10;;
14348;SDS011;7258;50.376;8.742;2023-02-28T11:16:11;4.87;;;4.37;;
14348;SDS011;7258;50.376;8.742;2023-02-28T11:18:20;4.93;;;4.50;;
14348;SDS011;7258;50.376;8.742;2023-02-28T11:20:28;4.83;;;4.30;;
14348;SDS011;7258;50.376;8.742;2023-02-28T11:22:38;4.70;;;4.30;;
14348;SDS011;7258;50.376;8.742;2023-02-28T11:24:57;7.47;;;4.37;;
14348;SDS011;7258;50.376;8.742;2023-02-28T11:27:05;4.93;;;4.50;;
14348;SDS011;7258;50.376;8.742;2023-02-28T11:29:15;4.33;;;3.97;;
14348;SDS011;7258;50.376;8.742;2023-02-28T11:31:22;4.73;;;4.23;;
14348;SDS011;7258;50.376;8.742;2023-02-28T11:33:27;7.03;;;4.73;;
14348;SDS011;7258;50.376;8.742;2023-02-28T11:35:33;5.03;;;4.63;;
14348;SDS011;7258;50.376;8.742;2023-02-28T11:37:39;7.63;;;5.50;;
14348;SDS011;7258;50.376;8.742;2023-02-28T11:39:43;5.77;;;5.17;;
14348;SDS011;7258;50.376;8.742;2023-02-28T11:41:54;5.33;;;4.80;;
14348;SDS011;7258;50.376;8.742;2023-02-28T11:44:15;5.27;;;4.77;;
14348;SDS011;7258;50.376;8.742;2023-02-28T11:46:29;4.93;;;4.47;;
14348;SDS011;7258;50.376;8.742;2023-02-28T11:48:41;5.23;;;4.73;;
14348;SDS011;7258;50.376;8.742;2023-02-28T11:50:56;6.13;;;5.40;;
14348;SDS011;7258;50.376;8.742;2023-02-28T11:53:05;4.67;;;4.27;;
14348;SDS011;7258;50.376;8.742;2023-02-28T11:55:17;5.23;;;4.77;;
14348;SDS011;7258;50.376;8.742;2023-02-28T11:57:32;5.33;;;4.80;;
14348;SDS011;7258;50.376;8.742;2023-02-28T11:59:47;5.10;;;4.60;;
14348;SDS011;7258;50.376;8.742;2023-02-28T12:02:05;7.23;;;5.17;;
14348;SDS011;7258;50.376;8.742;2023-02-28T12:04:27;5.93;;;4.63;;
14348;SDS011;7258;50.376;8.742;2023-02-28T12:06:40;5.67;;;4.70;;
14348;SDS011;7258;50.376;8.742;2023-02-28T12:08:49;7.20;;;5.30;;
14348;SDS011;7258;50.376;8.742;2023-02-28T12:11:09;5.80;;;5.20;;
14348;SDS011;7258;50.376;8.742;2023-02-28T12:13:17;6.30;;;4.90;;
14348;SDS011;7258;50.376;8.742;2023-02-28T12:15:28;5.00;;;4.50;;
14348;SDS011;7258;50.376;8.742;2023-02-28T12:17:46;6.07;;;4.83;;
14348;SDS011;7258;50.376;8.742;2023-02-28T12:19:59;6.23;;;4.53;;
14348;SDS011;7258;50.376;8.742;2023-02-28T12:22:14;5.23;;;4.73;;
14348;SDS011;7258;50.376;8.742;2023-02-28T12:24:35;6.57;;;4.77;;
14348;SDS011;7258;50.376;8.742;2023-02-28T12:26:48;5.47;;;4.83;;
14348;SDS011;7258;50.376;8.742;2023-02-28T12:28:53;5.67;;;4.73;;
14348;SDS011;7258;50.376;8.742;2023-02-28T12:31:06;6.10;;;5.50;;
14348;SDS011;7258;50.376;8.742;2023-02-28T12:33:24;5.13;;;4.47;;
14348;SDS011;7258;50.376;8.742;2023-02-28T12:35:34;5.43;;;4.97;;
14348;SDS011;7258;50.376;8.742;2023-02-28T12:37:42;5.37;;;4.87;;
14348;SDS011;7258;50.376;8.742;2023-02-28T12:39:50;4.97;;;4.50;;
14348;SDS011;7258;50.376;8.742;2023-02-28T12:41:59;4.97;;;4.47;;
14348;SDS011;7258;50.376;8.742;2023-02-28T12:44:06;5.27;;;4.80;;
14348;SDS011;7258;50.376;8.742;2023-02-28T12:46:14;5.10;;;4.60;;
14348;SDS011;7258;50.376;8.742;2023-02-28T12:48:24;6.60;;;4.63;;
14348;SDS011;7258;50.376;8.742;2023-02-28T12:50:31;5.63;;;5.03;;
14348;SDS011;7258;50.376;8.742;2023-02-28T12:52:39;5.47;;;4.93;;
14348;SDS011;7258;50.376;8.742;2023-02-28T12:54:49;5.67;;;4.70;;
14348;SDS011;7258;50.376;8.742;2023-02-28T12:57:00;5.83;;;5.00;;
14348;SDS011;7258;50.376;8.742;2023-02-28T12:59:13;5.53;;;4.50;;
14348;SDS011;7258;50.376;8.742;2023-02-28T13:01:35;5.30;;;4.73;;
14348;SDS011;7258;50.376;8.742;2023-02-28T13:03:51;5.40;;;4.77;;